Time;durP1;ratioP1;P1;durP2;ratioP2;P2;SDS_P1;SDS_P2;PMS_P1;PMS_P2;Temp;Humidity;BMP_temperature;BMP_pressure;BME280_temperature;BME280_humidity;BME280_pressure;Samples;Min_cycle;Max_cycle;Signal;HPM_P1;HPM_P2
2021/05/07 00:00:55;;;;;;;12.15;9.30;;;;;;;10.89;29.06;99986.41;4999645;28;99274;-70
2021/05/07 00:03:23;;;;;;;10.02;8.00;;;;;;;10.89;29.46;99989.06;5001172;28;97830;-72
2021/05/07 00:05:54;;;;;;;10.10;8.57;;;;;;;10.89;29.32;99991.72;5001312;28;98238;-70
2021/05/07 00:08:22;;;;;;;8.38;7.57;;;;;;;10.88;29.21;99992.63;5002940;28;97460;-69
2021/05/07 00:10:50;;;;;;;10.98;8.27;;;;;;;10.87;29.22;99987.25;4998197;28;97477;-72
2021/05/07 00:13:18;;;;;;;8.48;7.50;;;;;;;10.85;29.03;99994.38;5001880;28;98047;-70
2021/05/07 00:15:45;;;;;;;10.10;7.82;;;;;;;10.87;29.09;99992.56;5000725;28;98435;-71
2021/05/07 00:18:12;;;;;;;8.73;7.05;;;;;;;10.86;28.97;99996.13;4999223;28;97688;-71
2021/05/07 00:20:40;;;;;;;9.15;8.02;;;;;;;10.86;29.06;100001.44;5003502;28;97236;-70
2021/05/07 00:23:07;;;;;;;9.05;8.15;;;;;;;10.84;29.09;100006.78;5000587;28;96953;-71
2021/05/07 00:25:34;;;;;;;9.40;7.25;;;;;;;10.81;29.05;100009.38;4999178;28;97864;-70
2021/05/07 00:28:03;;;;;;;7.60;6.75;;;;;;;10.80;29.05;100007.63;4999437;28;97455;-70
2021/05/07 00:30:31;;;;;;;8.57;7.25;;;;;;;10.81;29.07;100016.50;5000812;28;97191;-70
2021/05/07 00:32:59;;;;;;;10.25;7.32;;;;;;;10.78;29.17;100012.03;5000570;28;98089;-70
2021/05/07 00:35:27;;;;;;;9.07;7.60;;;;;;;10.77;29.13;100010.28;4999614;28;98185;-71
2021/05/07 00:37:54;;;;;;;7.82;6.97;;;;;;;10.76;29.14;100015.56;4989719;28;98056;-71
2021/05/07 00:40:22;;;;;;;6.78;6.15;;;;;;;10.74;28.86;100022.66;4997731;28;97424;-71
2021/05/07 00:42:49;;;;;;;7.03;6.32;;;;;;;10.71;28.96;100012.88;4996966;28;98246;-71
2021/05/07 00:45:17;;;;;;;7.80;7.00;;;;;;;10.72;29.04;100011.97;4998266;28;97698;-70
2021/05/07 00:47:48;;;;;;;10.23;6.32;;;;;;;10.69;29.16;100019.94;4996577;28;98450;-69
2021/05/07 00:50:16;;;;;;;9.80;8.73;;;;;;;10.66;29.48;100008.38;4998808;28;98455;-71
2021/05/07 00:52:44;;;;;;;8.85;7.32;;;;;;;10.65;29.26;100014.59;4999318;28;98912;-72
2021/05/07 00:55:12;;;;;;;6.82;6.22;;;;;;;10.59;29.40;100014.53;4997326;28;97848;-70
2021/05/07 00:57:40;;;;;;;6.65;6.05;;;;;;;10.55;29.37;100010.06;5000903;28;97180;-71
2021/05/07 01:00:11;;;;;;;8.05;7.00;;;;;;;10.52;29.31;100013.56;4998597;28;98326;-71
2021/05/07 01:02:39;;;;;;;8.60;7.80;;;;;;;10.46;29.82;100016.19;4998693;28;97677;-70
2021/05/07 01:05:09;;;;;;;8.02;6.90;;;;;;;10.46;29.65;100015.28;4997627;28;99634;-71
2021/05/07 01:07:36;;;;;;;7.53;6.75;;;;;;;10.38;29.69;100012.53;5002112;28;97707;-71
2021/05/07 01:10:05;;;;;;;6.28;5.65;;;;;;;10.41;29.30;100012.56;4999231;28;99643;-71
2021/05/07 01:12:33;;;;;;;7.28;6.60;;;;;;;10.34;29.69;100009.84;4997874;28;97158;-71
2021/05/07 01:15:05;;;;;;;11.15;6.72;;;;;;;10.28;29.62;100015.09;4992953;28;97649;-72
2021/05/07 01:17:37;;;;;;;7.40;6.70;;;;;;;10.25;29.60;100015.06;4999307;28;98597;-71
2021/05/07 01:20:08;;;;;;;12.02;7.40;;;;;;;10.20;29.65;100015.00;5001463;28;96844;-71
2021/05/07 01:22:38;;;;;;;6.93;6.32;;;;;;;10.16;29.89;100016.75;4998628;28;97846;-71
2021/05/07 01:25:07;;;;;;;6.85;6.25;;;;;;;10.18;29.63;100015.00;4997840;28;97927;-70
2021/05/07 01:27:37;;;;;;;8.15;7.30;;;;;;;10.18;29.63;100017.66;4997469;28;96754;-70
2021/05/07 01:30:09;;;;;;;7.30;6.70;;;;;;;10.13;29.67;100013.16;4999233;28;97535;-71
2021/05/07 01:32:37;;;;;;;10.30;7.35;;;;;;;10.07;29.72;100019.31;4979463;28;99228;-70
2021/05/07 01:35:08;;;;;;;6.78;6.18;;;;;;;9.95;29.81;100021.84;5000393;28;99000;-73
2021/05/07 01:37:36;;;;;;;7.38;6.57;;;;;;;9.84;30.03;100023.47;5010463;28;97235;-73
2021/05/07 01:40:11;;;;;;;7.80;7.00;;;;;;;9.75;30.32;100028.69;5015337;28;97203;-73
2021/05/07 01:42:38;;;;;;;8.43;7.60;;;;;;;9.72;30.18;100020.66;4996955;28;98828;-71
2021/05/07 01:45:07;;;;;;;8.13;7.40;;;;;;;9.66;30.18;100028.56;4998726;28;97895;-71
2021/05/07 01:47:35;;;;;;;10.40;9.35;;;;;;;9.63;31.36;100025.84;4997589;28;97566;-71
2021/05/07 01:50:04;;;;;;;10.85;9.70;;;;;;;9.59;32.23;100031.13;5000219;28;97177;-71
2021/05/07 01:52:32;;;;;;;8.98;7.90;;;;;;;9.64;31.55;100034.72;4996183;28;97778;-71
2021/05/07 01:55:02;;;;;;;9.00;7.38;;;;;;;9.62;31.47;100037.38;4999262;28;99175;-70
2021/05/07 01:57:30;;;;;;;7.72;6.68;;;;;;;9.56;31.35;100037.28;5000339;28;98003;-71
2021/05/07 01:59:58;;;;;;;7.93;7.13;;;;;;;9.48;31.25;100038.91;4997487;28;98156;-72
2021/05/07 02:02:26;;;;;;;7.85;7.13;;;;;;;9.43;31.16;100043.25;4995691;28;97857;-71
2021/05/07 02:04:54;;;;;;;9.07;8.18;;;;;;;9.37;31.21;100045.81;4998078;28;98405;-71
2021/05/07 02:07:21;;;;;;;9.07;8.13;;;;;;;9.32;31.30;100050.16;4994661;28;97567;-72
2021/05/07 02:09:49;;;;;;;8.98;8.07;;;;;;;9.25;31.30;100048.28;4998515;28;97896;-72
2021/05/07 02:12:16;;;;;;;9.85;8.05;;;;;;;9.21;31.39;100052.66;4996560;28;98097;-72
2021/05/07 02:14:44;;;;;;;9.68;7.30;;;;;;;9.15;31.38;100052.56;4997711;28;98719;-71
2021/05/07 02:17:11;;;;;;;8.73;7.80;;;;;;;9.14;31.47;100058.75;4994896;28;97159;-71
2021/05/07 02:19:38;;;;;;;9.88;8.63;;;;;;;9.07;31.53;100061.28;4997748;28;97200;-70
2021/05/07 02:22:06;;;;;;;9.07;8.10;;;;;;;9.01;31.42;100054.13;4994782;28;98117;-71
2021/05/07 02:24:33;;;;;;;11.65;8.40;;;;;;;9.01;31.56;100053.22;4996390;28;98909;-72
2021/05/07 02:27:01;;;;;;;9.30;8.38;;;;;;;8.98;31.66;100055.84;4995562;28;97701;-71
2021/05/07 02:29:28;;;;;;;11.23;8.15;;;;;;;8.95;31.56;100056.69;4998141;28;97406;-70
2021/05/07 02:31:56;;;;;;;9.32;7.68;;;;;;;8.75;31.93;100058.09;4996266;28;98991;-71
2021/05/07 02:34:23;;;;;;;9.63;8.43;;;;;;;8.66;32.24;100057.94;4996458;28;97515;-72
2021/05/07 02:36:51;;;;;;;8.43;7.55;;;;;;;8.59;32.11;100063.13;4995701;28;97906;-70
2021/05/07 02:39:19;;;;;;;11.57;8.98;;;;;;;8.48;32.51;100056.72;4987539;28;97520;-70
2021/05/07 02:41:46;;;;;;;9.82;8.75;;;;;;;8.49;32.50;100056.78;4998681;28;97458;-70
2021/05/07 02:44:15;;;;;;;9.73;8.77;;;;;;;8.48;32.54;100056.72;4993069;28;97909;-70
2021/05/07 02:46:43;;;;;;;11.88;9.15;;;;;;;8.48;32.42;100043.47;4998493;28;97596;-71
2021/05/07 02:49:10;;;;;;;10.07;8.10;;;;;;;8.49;32.50;100042.63;4995939;28;98124;-72
2021/05/07 02:51:37;;;;;;;9.70;8.18;;;;;;;8.50;32.36;100044.41;4999312;28;98082;-71
2021/05/07 02:54:05;;;;;;;9.93;8.57;;;;;;;8.49;32.55;100048.84;4995880;28;97359;-69
2021/05/07 02:56:32;;;;;;;10.25;9.25;;;;;;;8.47;32.24;100055.88;4995740;28;97854;-71
2021/05/07 02:59:00;;;;;;;13.18;9.55;;;;;;;8.49;32.54;100053.22;4998325;28;97213;-71
2021/05/07 03:01:28;;;;;;;13.52;11.98;;;;;;;8.48;34.30;100052.31;4998147;28;99454;-70
2021/05/07 03:03:55;;;;;;;11.88;9.50;;;;;;;8.55;33.81;100048.03;4996118;28;97934;-70
2021/05/07 03:06:23;;;;;;;12.95;9.73;;;;;;;8.58;33.50;100049.00;4998011;28;97879;-70
2021/05/07 03:08:50;;;;;;;12.60;9.77;;;;;;;8.59;33.57;100044.56;4998916;28;96977;-71
2021/05/07 03:11:17;;;;;;;11.73;9.32;;;;;;;8.60;33.30;100041.97;4993493;28;98308;-71
2021/05/07 03:13:45;;;;;;;14.40;11.60;;;;;;;8.56;34.92;100060.44;4995548;28;97981;-71
2021/05/07 03:16:12;;;;;;;10.23;9.05;;;;;;;8.59;34.41;100061.38;4996694;28;97840;-70
2021/05/07 03:18:41;;;;;;;14.00;10.75;;;;;;;8.53;34.05;100057.72;5000091;28;97636;-70
2021/05/07 03:21:08;;;;;;;12.77;9.55;;;;;;;8.50;34.19;100061.22;4997366;28;97395;-71
2021/05/07 03:23:36;;;;;;;13.18;11.43;;;;;;;8.48;35.14;100072.63;5002085;28;97638;-71
2021/05/07 03:26:03;;;;;;;13.45;12.05;;;;;;;8.47;35.90;100070.84;4996274;28;98412;-69
2021/05/07 03:28:30;;;;;;;11.35;9.52;;;;;;;8.46;35.29;100071.72;4999504;28;97471;-70
2021/05/07 03:30:57;;;;;;;10.10;8.65;;;;;;;8.44;35.00;100076.09;5002246;28;97132;-71
2021/05/07 03:33:25;;;;;;;10.25;7.85;;;;;;;8.39;34.83;100072.44;5002772;28;97809;-72
2021/05/07 03:35:53;;;;;;;10.23;8.35;;;;;;;8.39;34.68;100077.75;4998701;28;97643;-71
2021/05/07 03:38:21;;;;;;;12.40;11.10;;;;;;;8.39;35.54;100083.03;5007879;28;96896;-71
2021/05/07 03:40:48;;;;;;;13.13;11.73;;;;;;;8.45;36.15;100078.75;4996739;28;98476;-71
2021/05/07 03:43:15;;;;;;;13.02;11.57;;;;;;;8.48;36.22;100084.16;4999752;28;96832;-72
2021/05/07 03:45:43;;;;;;;9.88;8.52;;;;;;;8.56;35.57;100079.88;4999150;28;97292;-71
2021/05/07 03:48:14;;;;;;;11.82;10.63;;;;;;;8.58;35.96;100083.47;4998525;28;97068;-71
2021/05/07 03:50:41;;;;;;;12.05;10.75;;;;;;;8.60;36.09;100087.03;4999660;28;100566;-71
2021/05/07 03:53:10;;;;;;;9.60;8.55;;;;;;;8.68;35.67;100088.03;5001063;28;101612;-72
2021/05/07 03:55:39;;;;;;;11.52;8.15;;;;;;;8.71;35.40;100084.56;5001774;28;97151;-70
2021/05/07 03:58:06;;;;;;;9.35;8.20;;;;;;;8.72;34.89;100089.00;4999529;28;96868;-70
2021/05/07 04:00:34;;;;;;;11.60;10.20;;;;;;;8.67;35.99;100086.28;4997976;28;98848;-70
2021/05/07 04:03:02;;;;;;;13.07;11.37;;;;;;;8.67;36.30;100085.38;4990896;28;98131;-72
2021/05/07 04:05:30;;;;;;;13.82;11.65;;;;;;;8.70;36.46;100090.72;4998266;28;96797;-70
2021/05/07 04:08:05;;;;;;;14.17;12.60;;;;;;;8.76;36.35;100096.16;4998392;28;97721;-70
2021/05/07 04:10:37;;;;;;;12.60;11.17;;;;;;;8.78;36.42;100107.69;4999290;28;98034;-70
2021/05/07 04:15:50;;;;;;;13.02;11.63;;;;;;;8.77;36.21;100098.81;4999628;28;97419;-70
2021/05/07 04:18:17;;;;;;;12.50;11.17;;;;;;;8.81;36.24;100103.31;4998033;28;97899;-70
2021/05/07 04:20:45;;;;;;;10.65;9.27;;;;;;;8.86;35.72;100098.09;4998388;28;97809;-70
2021/05/07 04:23:12;;;;;;;10.85;9.18;;;;;;;8.81;35.51;100099.75;4998844;28;96951;-70
2021/05/07 04:25:41;;;;;;;12.50;9.75;;;;;;;8.74;35.52;100103.19;4997855;28;96794;-71
2021/05/07 04:28:08;;;;;;;10.52;9.10;;;;;;;8.71;35.18;100105.78;4998182;28;97216;-71
2021/05/07 04:30:35;;;;;;;11.10;8.80;;;;;;;8.66;35.20;100105.69;4996619;28;99129;-70
2021/05/07 04:33:02;;;;;;;8.30;7.45;;;;;;;8.61;35.25;100111.78;4993462;28;97894;-70
2021/05/07 04:35:30;;;;;;;11.02;8.57;;;;;;;8.60;35.15;100107.34;4999910;28;96988;-71
2021/05/07 04:38:02;;;;;;;9.18;7.90;;;;;;;8.58;35.05;100104.69;4998963;28;97379;-69
2021/05/07 04:40:30;;;;;;;9.10;8.20;;;;;;;8.57;34.99;100099.34;4989853;28;97866;-71
2021/05/07 04:43:01;;;;;;;14.13;9.67;;;;;;;8.59;35.84;100108.19;4995562;28;98993;-71
2021/05/07 04:45:28;;;;;;;10.55;9.55;;;;;;;8.58;36.41;100111.72;4997954;28;97522;-72
2021/05/07 04:47:56;;;;;;;10.43;9.07;;;;;;;8.56;36.78;100118.75;4996682;28;97341;-71
2021/05/07 04:50:23;;;;;;;9.75;8.27;;;;;;;8.57;36.72;100134.69;5000899;28;98035;-70
2021/05/07 04:52:50;;;;;;;8.52;7.72;;;;;;;8.55;36.85;100162.94;4996343;28;98943;-69
2021/05/07 04:55:18;;;;;;;8.40;7.30;;;;;;;8.53;36.91;100175.28;4995428;28;96822;-69
2021/05/07 04:57:45;;;;;;;7.32;6.65;;;;;;;8.43;36.78;100186.53;4995613;28;97132;-70
2021/05/07 05:00:14;;;;;;;7.60;6.15;;;;;;;8.35;36.88;100216.41;4995219;28;97627;-71
2021/05/07 05:02:41;;;;;;;8.17;6.00;;;;;;;8.27;37.22;100221.56;4994379;28;97741;-71
2021/05/07 05:05:10;;;;;;;6.18;5.75;;;;;;;8.03;38.07;100234.25;4998428;28;96932;-71
2021/05/07 05:07:38;;;;;;;5.72;5.20;;;;;;;7.80;36.88;100238.13;5000011;28;97594;-72
2021/05/07 05:10:06;;;;;;;5.43;4.97;;;;;;;7.57;37.49;100234.94;4994133;28;98639;-72
2021/05/07 05:12:33;;;;;;;6.50;5.45;;;;;;;7.41;37.04;100239.81;4996682;28;96801;-72
2021/05/07 05:15:01;;;;;;;6.03;5.38;;;;;;;7.37;37.26;100246.75;4998642;28;97097;-73
2021/05/07 05:17:30;;;;;;;9.82;6.22;;;;;;;7.29;37.15;100253.56;4992097;28;97341;-74
2021/05/07 05:19:57;;;;;;;5.65;5.00;;;;;;;7.12;37.34;100245.22;4988188;28;97820;-72
2021/05/07 05:22:24;;;;;;;6.72;6.05;;;;;;;7.17;37.94;100262.09;4992924;28;98341;-73
2021/05/07 05:24:52;;;;;;;5.70;5.20;;;;;;;7.12;37.95;100254.91;4991215;28;97900;-74
2021/05/07 05:27:19;;;;;;;5.97;5.43;;;;;;;7.07;37.72;100259.19;4988819;28;97131;-74
2021/05/07 05:29:47;;;;;;;8.20;6.47;;;;;;;7.02;37.88;100274.00;4991751;28;99053;-72
2021/05/07 05:32:15;;;;;;;6.45;5.82;;;;;;;6.95;37.17;100272.06;4993199;28;97929;-73
2021/05/07 05:34:44;;;;;;;7.10;5.70;;;;;;;6.85;37.39;100281.47;4997661;28;97854;-72
2021/05/07 05:37:12;;;;;;;6.60;6.00;;;;;;;6.81;37.68;100281.38;4995006;28;98116;-72
2021/05/07 05:39:39;;;;;;;5.18;4.70;;;;;;;6.69;37.64;100286.31;4995197;28;98472;-73
2021/05/07 05:42:26;;;;;;;4.80;4.43;;;;;;;6.63;37.23;100292.31;4991030;28;98505;-73
2021/05/07 05:44:53;;;;;;;5.80;5.30;;;;;;;6.55;37.54;100292.94;4991933;28;97435;-73
2021/05/07 05:47:21;;;;;;;5.43;5.03;;;;;;;6.50;37.40;100299.84;4995237;28;97766;-72
2021/05/07 05:49:49;;;;;;;5.70;5.20;;;;;;;6.43;37.35;100296.13;4991326;28;97983;-73
2021/05/07 05:52:16;;;;;;;6.13;5.53;;;;;;;6.42;37.08;100298.69;4995249;28;100002;-73
2021/05/07 05:54:44;;;;;;;6.45;5.95;;;;;;;6.41;37.35;100310.13;4997903;28;97716;-73
2021/05/07 05:57:11;;;;;;;5.70;5.20;;;;;;;6.35;37.17;100312.59;4994186;28;98403;-73
2021/05/07 05:59:38;;;;;;;5.85;5.35;;;;;;;6.30;37.35;100308.91;4994142;28;97847;-73
2021/05/07 06:02:06;;;;;;;5.72;5.22;;;;;;;6.23;37.00;100316.59;4992476;28;99085;-73
2021/05/07 06:04:34;;;;;;;5.97;5.37;;;;;;;6.22;37.54;100316.56;4994778;28;97545;-73
2021/05/07 06:07:02;;;;;;;5.70;5.20;;;;;;;6.19;37.41;100322.66;4996994;28;97951;-73
2021/05/07 06:09:30;;;;;;;5.80;5.30;;;;;;;6.15;37.34;100320.78;4996378;28;97879;-72
2021/05/07 06:11:57;;;;;;;5.30;4.88;;;;;;;6.15;37.13;100319.88;4996355;28;98257;-72
2021/05/07 06:14:25;;;;;;;5.50;5.10;;;;;;;6.12;37.56;100325.94;4995651;28;97840;-72
2021/05/07 06:17:06;;;;;;;5.72;5.32;;;;;;;6.09;37.64;100331.13;4998497;28;98033;-72
2021/05/07 06:19:34;;;;;;;5.57;5.07;;;;;;;6.08;37.55;100332.00;4992719;28;97456;-72
2021/05/07 06:22:02;;;;;;;5.40;5.00;;;;;;;6.07;37.39;100338.09;4998908;28;99617;-73
2021/05/07 06:24:30;;;;;;;5.32;4.93;;;;;;;6.09;37.80;100341.69;4996641;28;97234;-73
2021/05/07 06:26:57;;;;;;;5.68;5.18;;;;;;;6.07;37.75;100343.38;4995789;28;97146;-72
2021/05/07 06:29:25;;;;;;;5.75;5.25;;;;;;;6.06;38.04;100341.63;4991766;28;97779;-73
2021/05/07 06:31:53;;;;;;;5.78;5.32;;;;;;;6.10;38.17;100346.13;4998127;28;97803;-72
2021/05/07 06:34:20;;;;;;;8.60;5.80;;;;;;;6.10;38.03;100343.47;4997184;28;98197;-72
2021/05/07 06:36:47;;;;;;;7.65;5.63;;;;;;;6.09;38.09;100348.72;4993536;28;96838;-73
2021/05/07 06:39:15;;;;;;;7.65;6.35;;;;;;;6.09;38.24;100349.63;4994479;28;100318;-73
2021/05/07 06:41:43;;;;;;;6.32;5.82;;;;;;;6.13;38.38;100356.81;4989735;28;100581;-73
2021/05/07 06:44:10;;;;;;;6.97;6.47;;;;;;;6.17;38.16;100352.50;4994395;28;97466;-73
2021/05/07 06:46:38;;;;;;;6.53;6.03;;;;;;;6.13;38.40;100362.09;4992826;28;97428;-72
2021/05/07 06:49:06;;;;;;;6.93;6.38;;;;;;;6.16;38.29;100358.63;4992358;28;97471;-72
2021/05/07 06:51:33;;;;;;;6.73;6.13;;;;;;;6.23;38.35;100361.50;4996035;28;98077;-72
2021/05/07 06:54:01;;;;;;;7.65;6.88;;;;;;;6.32;38.62;100365.34;4994979;28;99242;-73
2021/05/07 06:56:29;;;;;;;7.05;6.45;;;;;;;6.38;38.39;100360.25;4995666;28;97648;-72
2021/05/07 06:58:57;;;;;;;7.18;6.53;;;;;;;6.48;38.09;100375.53;4991042;28;98051;-72
2021/05/07 07:01:24;;;;;;;6.78;6.10;;;;;;;6.58;38.36;100375.00;4996202;28;97750;-72
2021/05/07 07:03:52;;;;;;;7.97;7.22;;;;;;;6.66;37.66;100378.75;4996275;28;97297;-73
2021/05/07 07:06:19;;;;;;;6.43;6.03;;;;;;;6.70;37.64;100384.19;4994633;28;97941;-71
2021/05/07 07:08:47;;;;;;;6.95;6.45;;;;;;;6.77;38.02;100388.81;4994336;28;97399;-71
2021/05/07 07:11:14;;;;;;;6.72;6.22;;;;;;;6.83;37.68;100388.09;4995255;28;101175;-72
2021/05/07 07:13:42;;;;;;;5.72;5.22;;;;;;;6.90;37.54;100398.00;5006899;28;97680;-72
2021/05/07 07:16:09;;;;;;;5.18;4.85;;;;;;;6.89;37.51;100404.16;4996278;28;97456;-72
2021/05/07 07:18:37;;;;;;;5.40;5.00;;;;;;;6.92;37.48;100398.94;4992715;28;99012;-72
2021/05/07 07:21:05;;;;;;;5.30;4.90;;;;;;;6.92;37.60;100399.84;4996001;28;102323;-73
2021/05/07 07:23:32;;;;;;;4.68;4.38;;;;;;;6.96;37.11;100406.13;4995398;28;97341;-72
2021/05/07 07:25:59;;;;;;;4.87;4.60;;;;;;;6.85;37.06;100407.53;4994337;28;97642;-71
2021/05/07 07:28:27;;;;;;;5.30;4.90;;;;;;;6.80;37.45;100409.13;4993036;28;97768;-70
2021/05/07 07:30:55;;;;;;;5.45;5.15;;;;;;;6.75;37.74;100416.94;4996150;28;96929;-72
2021/05/07 07:33:23;;;;;;;5.10;4.80;;;;;;;6.80;37.57;100411.78;4995674;28;97646;-71
2021/05/07 07:35:50;;;;;;;4.97;4.68;;;;;;;6.77;38.06;100416.97;4997531;28;98026;-71
2021/05/07 07:38:17;;;;;;;4.82;4.53;;;;;;;6.79;37.63;100421.47;4992135;28;98166;-72
2021/05/07 07:40:45;;;;;;;4.87;4.57;;;;;;;6.87;37.51;100427.00;4989950;28;98150;-71
2021/05/07 07:43:12;;;;;;;4.60;4.30;;;;;;;6.96;37.74;100422.00;4993381;28;97711;-73
2021/05/07 07:45:40;;;;;;;4.40;4.20;;;;;;;7.04;37.61;100426.66;4989934;28;97534;-72
2021/05/07 07:48:08;;;;;;;4.23;4.03;;;;;;;7.14;37.63;100425.19;4995433;28;98504;-72
2021/05/07 07:50:36;;;;;;;4.38;4.15;;;;;;;7.19;37.73;100428.84;4993571;28;99355;-72
2021/05/07 07:53:04;;;;;;;3.95;3.75;;;;;;;7.27;37.71;100434.38;4995593;28;97673;-72
2021/05/07 07:55:31;;;;;;;3.70;3.50;;;;;;;7.33;37.64;100437.19;4995079;28;97558;-71
2021/05/07 07:57:59;;;;;;;3.95;3.75;;;;;;;7.33;37.39;100438.06;4995060;28;99152;-75
2021/05/07 08:00:26;;;;;;;4.00;3.80;;;;;;;7.32;37.70;100448.63;4994386;28;97552;-72
2021/05/07 08:02:53;;;;;;;4.10;3.90;;;;;;;7.32;37.44;100448.63;5001587;28;97166;-71
2021/05/07 08:05:22;;;;;;;4.20;3.90;;;;;;;7.34;37.67;100447.81;4996138;28;97244;-72
2021/05/07 08:07:49;;;;;;;3.95;3.85;;;;;;;7.37;37.64;100460.22;4998976;28;97796;-71
2021/05/07 08:10:18;;;;;;;4.80;4.50;;;;;;;7.42;37.48;100462.19;4999075;28;97886;-71
2021/05/07 08:12:45;;;;;;;5.68;5.25;;;;;;;7.47;37.38;100467.63;5001370;28;97563;-71
2021/05/07 08:15:13;;;;;;;6.22;5.63;;;;;;;7.53;37.45;100470.47;4998280;28;97048;-72
2021/05/07 08:17:42;;;;;;;6.60;6.10;;;;;;;7.59;37.33;100478.56;4999760;28;98342;-72
2021/05/07 08:20:11;;;;;;;8.95;8.15;;;;;;;7.60;37.34;100475.94;4995429;28;97688;-71
2021/05/07 08:22:40;;;;;;;8.67;7.67;;;;;;;7.65;37.58;100470.78;4999745;28;97803;-71
2021/05/07 08:25:10;;;;;;;8.65;7.75;;;;;;;7.67;37.37;100483.22;4995826;28;96995;-71
2021/05/07 08:27:37;;;;;;;9.52;8.52;;;;;;;7.72;37.44;100486.91;4997303;28;98133;-71
2021/05/07 08:30:06;;;;;;;11.02;8.90;;;;;;;7.82;37.26;100485.41;4996867;28;100774;-72
2021/05/07 08:32:33;;;;;;;10.48;9.38;;;;;;;7.90;37.32;100495.34;4998142;28;97598;-71
2021/05/07 08:35:01;;;;;;;11.18;9.70;;;;;;;7.95;37.04;100499.00;4996958;28;97436;-73
2021/05/07 08:37:28;;;;;;;13.27;10.95;;;;;;;7.99;37.50;100495.59;4995921;28;97516;-71
2021/05/07 08:39:56;;;;;;;13.35;11.40;;;;;;;8.08;37.35;100510.81;4995729;28;97799;-72
2021/05/07 08:42:24;;;;;;;13.20;11.80;;;;;;;8.08;37.18;100511.72;4986287;28;98295;-71
2021/05/07 08:44:51;;;;;;;13.95;12.23;;;;;;;8.15;37.51;100518.97;4994822;28;97304;-72
2021/05/07 08:47:19;;;;;;;13.82;12.38;;;;;;;8.24;37.56;100513.94;4996899;28;98106;-71
2021/05/07 08:49:48;;;;;;;14.52;13.02;;;;;;;8.34;37.35;100519.47;4994759;28;98240;-72
2021/05/07 08:52:16;;;;;;;14.90;13.23;;;;;;;8.41;37.43;100516.09;4999267;28;96993;-72
2021/05/07 08:54:44;;;;;;;16.15;14.55;;;;;;;8.50;37.06;100525.22;4995897;28;97719;-71
2021/05/07 08:57:12;;;;;;;16.60;14.90;;;;;;;8.52;36.73;100526.16;4996264;28;97888;-71
2021/05/07 08:59:40;;;;;;;17.05;15.25;;;;;;;8.50;36.63;100526.97;4997027;28;98897;-71
2021/05/07 09:02:07;;;;;;;14.32;12.75;;;;;;;8.53;36.43;100533.25;4996105;28;98015;-72
2021/05/07 09:04:35;;;;;;;16.08;14.40;;;;;;;8.54;36.50;100528.84;4999166;28;97047;-71
2021/05/07 09:07:12;;;;;;;16.35;14.48;;;;;;;8.59;36.54;100540.47;4996582;28;98554;-70
2021/05/07 09:09:49;;;;;;;16.92;15.15;;;;;;;8.66;36.80;100545.97;4998211;28;97942;-72
2021/05/07 09:12:29;;;;;;;16.97;15.23;;;;;;;8.80;36.46;100546.31;4999056;28;97488;-73
2021/05/07 09:14:57;;;;;;;15.75;14.15;;;;;;;8.89;36.16;100543.91;4995688;28;96777;-72
2021/05/07 09:17:29;;;;;;;14.13;12.53;;;;;;;8.95;35.79;100547.56;4997972;28;97914;-71
2021/05/07 09:20:06;;;;;;;12.32;11.02;;;;;;;9.04;35.41;100549.56;4996464;28;99149;-72
2021/05/07 09:22:35;;;;;;;12.48;9.95;;;;;;;9.04;35.25;100547.78;4998754;28;97191;-72
2021/05/07 09:25:06;;;;;;;14.82;13.30;;;;;;;8.91;35.55;100547.47;4998254;28;96862;-72
2021/05/07 09:27:34;;;;;;;16.23;14.57;;;;;;;8.95;35.58;100544.91;4995530;28;100033;-72
2021/05/07 09:30:04;;;;;;;15.93;14.32;;;;;;;9.02;35.41;100544.19;4997559;28;97056;-72
2021/05/07 09:32:32;;;;;;;16.52;14.82;;;;;;;9.08;35.40;100554.97;4999345;28;97310;-70
2021/05/07 09:35:08;;;;;;;11.85;10.65;;;;;;;9.15;35.54;100553.38;4998592;28;97767;-71
2021/05/07 09:37:36;;;;;;;15.95;14.23;;;;;;;9.15;35.24;100550.72;4997928;28;97834;-72
2021/05/07 09:40:15;;;;;;;16.55;14.95;;;;;;;9.18;35.17;100558.75;4995077;28;101877;-72
2021/05/07 09:42:44;;;;;;;17.70;15.80;;;;;;;9.29;35.06;100558.97;4998228;28;97020;-72
2021/05/07 09:45:22;;;;;;;16.73;15.02;;;;;;;9.46;35.23;100565.59;4994039;28;97280;-72
2021/05/07 09:47:51;;;;;;;12.88;11.52;;;;;;;9.48;34.84;100574.53;4997580;28;99349;-72
2021/05/07 09:50:20;;;;;;;15.85;14.10;;;;;;;9.41;34.63;100576.09;4995699;28;100044;-71
2021/05/07 09:52:50;;;;;;;16.38;14.25;;;;;;;9.42;34.66;100572.59;4998334;28;97121;-72
2021/05/07 09:55:22;;;;;;;12.80;11.38;;;;;;;9.45;34.32;100588.56;5000477;28;97900;-72
2021/05/07 09:57:50;;;;;;;12.15;9.95;;;;;;;9.37;34.38;100587.50;4996838;28;97561;-72
2021/05/07 10:00:18;;;;;;;11.13;9.98;;;;;;;9.30;34.57;100590.88;4997460;28;104464;-72
2021/05/07 10:02:45;;;;;;;10.05;8.95;;;;;;;9.29;34.35;100593.50;5002468;28;97029;-73
2021/05/07 10:05:12;;;;;;;9.88;8.35;;;;;;;9.37;34.27;100591.94;5004314;28;97472;-72
2021/05/07 10:07:39;;;;;;;8.40;7.63;;;;;;;9.44;34.15;100594.78;5003477;28;97974;-73
2021/05/07 10:10:08;;;;;;;8.57;7.78;;;;;;;9.45;34.04;100600.94;4999995;28;101216;-72
2021/05/07 10:12:36;;;;;;;8.80;7.85;;;;;;;9.45;33.92;100596.53;5001157;28;97016;-72
2021/05/07 10:15:06;;;;;;;9.02;8.13;;;;;;;9.45;33.81;100601.84;4998003;28;99593;-72
2021/05/07 10:17:33;;;;;;;11.00;9.35;;;;;;;9.42;33.92;100601.81;4998629;28;99969;-71
2021/05/07 10:20:04;;;;;;;9.45;8.48;;;;;;;9.40;33.91;100607.91;4997694;28;97390;-71
2021/05/07 10:22:56;;;;;;;19.90;13.07;;;;;;;9.36;33.91;100604.31;5001656;28;97285;-70
2021/05/07 10:25:25;;;;;;;11.30;9.35;;;;;;;9.42;33.94;100601.81;4994692;28;98205;-72
2021/05/07 10:27:53;;;;;;;11.88;9.23;;;;;;;9.51;33.80;100606.44;4998173;28;98417;-71
2021/05/07 10:30:23;;;;;;;12.25;10.02;;;;;;;9.67;33.58;100608.56;4997168;28;97914;-73
2021/05/07 10:32:59;;;;;;;9.40;8.50;;;;;;;9.83;33.32;100616.91;5000099;28;97139;-72
2021/05/07 10:35:31;;;;;;;11.13;9.48;;;;;;;9.97;33.43;100604.81;4998979;28;97973;-71
2021/05/07 10:38:07;;;;;;;8.32;7.45;;;;;;;10.18;32.79;100615.88;4999923;28;97832;-71
2021/05/07 10:40:34;;;;;;;8.43;7.40;;;;;;;10.23;32.75;100614.22;4996847;28;97905;-71
2021/05/07 10:43:02;;;;;;;9.70;8.80;;;;;;;10.14;32.25;100629.06;4986979;28;97254;-71
2021/05/07 10:45:41;;;;;;;9.88;8.88;;;;;;;10.43;31.74;100622.59;4994362;28;97435;-71
2021/05/07 10:48:13;;;;;;;8.60;7.75;;;;;;;10.55;31.94;100616.63;5004088;28;98744;-71
2021/05/07 10:50:41;;;;;;;10.52;9.40;;;;;;;10.46;31.58;100621.78;5002083;28;98010;-71
2021/05/07 10:53:08;;;;;;;9.00;8.05;;;;;;;10.49;31.58;100628.03;5009219;28;97417;-69
2021/05/07 10:55:36;;;;;;;8.52;7.72;;;;;;;10.32;31.91;100648.06;5003997;28;97155;-71
2021/05/07 10:58:05;;;;;;;7.82;6.43;;;;;;;10.20;31.93;100656.72;5002407;28;101054;-70
2021/05/07 11:00:34;;;;;;;8.05;7.25;;;;;;;10.05;32.38;100660.78;4996369;28;97500;-71
2021/05/07 11:03:03;;;;;;;7.72;6.95;;;;;;;9.99;32.44;100660.69;4999493;28;96870;-71
2021/05/07 11:05:38;;;;;;;9.17;8.17;;;;;;;10.00;33.06;100658.06;4982840;28;96909;-70
2021/05/07 11:08:06;;;;;;;9.23;8.32;;;;;;;10.20;33.21;100662.03;4995978;28;98656;-70
2021/05/07 11:10:33;;;;;;;6.82;6.22;;;;;;;10.54;32.75;100670.72;4989837;28;99120;-72
2021/05/07 11:13:01;;;;;;;8.35;7.65;;;;;;;10.58;32.62;100673.44;4991500;28;98162;-72
2021/05/07 11:15:28;;;;;;;8.63;7.82;;;;;;;10.64;32.67;100672.69;4995000;28;97203;-72
2021/05/07 11:18:00;;;;;;;8.60;7.87;;;;;;;10.81;32.57;100669.44;4998643;28;100121;-72
2021/05/07 11:20:33;;;;;;;8.15;7.47;;;;;;;10.99;32.27;100671.56;4996473;28;97832;-72
2021/05/07 11:23:01;;;;;;;8.93;7.93;;;;;;;11.18;31.94;100671.91;4997688;28;97349;-72
2021/05/07 11:25:30;;;;;;;9.07;8.18;;;;;;;11.38;31.69;100674.03;4995367;28;97328;-71
2021/05/07 11:28:10;;;;;;;8.35;7.30;;;;;;;11.56;31.17;100677.88;4995749;28;98892;-72
2021/05/07 11:30:52;;;;;;;6.88;6.28;;;;;;;11.52;31.16;100681.38;4994366;28;96986;-73
2021/05/07 11:33:20;;;;;;;6.95;6.25;;;;;;;11.41;31.29;100690.97;4999535;28;97442;-72
2021/05/07 11:36:02;;;;;;;7.07;6.33;;;;;;;11.10;31.35;100694.81;4997476;28;97731;-72